createdAt,value
2023-02-22T00:01:35.541Z,76.32
2023-02-22T00:04:05.295Z,76.24
2023-02-22T00:06:32.635Z,75.98
2023-02-22T00:08:59.901Z,76.11
2023-02-22T00:11:26.987Z,76.30
2023-02-22T00:13:57.337Z,76.19
2023-02-22T00:16:25.913Z,76.09
2023-02-22T00:18:53.499Z,75.96
2023-02-22T00:21:21.463Z,75.88
2023-02-22T00:23:49.073Z,75.90
2023-02-22T00:26:18.530Z,75.83
2023-02-22T00:28:54.129Z,75.71
2023-02-22T00:31:21.579Z,75.79
2023-02-22T00:33:49.529Z,75.66
2023-02-22T00:36:17.626Z,76.08
2023-02-22T00:38:44.370Z,75.83
2023-02-22T00:41:11.939Z,75.79
2023-02-22T00:43:38.718Z,75.97
2023-02-22T00:46:05.656Z,75.99
2023-02-22T00:48:32.759Z,75.98
2023-02-22T00:50:59.551Z,75.93
2023-02-22T00:53:26.603Z,76.05
2023-02-22T00:55:54.326Z,75.88
2023-02-22T00:58:22.153Z,75.90
2023-02-22T01:00:49.989Z,75.56
2023-02-22T01:03:20.033Z,75.97
2023-02-22T01:05:47.595Z,75.78
2023-02-22T01:08:15.653Z,75.50
2023-02-22T01:10:43.082Z,75.40
2023-02-22T01:13:12.577Z,75.47
2023-02-22T01:15:42.795Z,75.44
2023-02-22T01:18:09.988Z,75.45
2023-02-22T01:20:37.010Z,75.12
2023-02-22T01:23:07.022Z,75.07
2023-02-22T01:25:35.145Z,75.02
2023-02-22T01:28:03.423Z,74.93
2023-02-22T01:30:35.567Z,74.76
2023-02-22T01:33:05.806Z,74.70
2023-02-22T01:35:35.359Z,74.61
2023-02-22T01:38:02.567Z,74.61
2023-02-22T01:40:35.143Z,74.54
2023-02-22T01:43:14.563Z,74.64
2023-02-22T01:46:02.775Z,74.50
2023-02-22T01:48:35.595Z,74.28
2023-02-22T01:51:10.753Z,74.33
2023-02-22T01:53:44.022Z,74.38
2023-02-22T01:56:11.943Z,74.30
2023-02-22T01:58:42.481Z,74.32
2023-02-22T02:01:10.351Z,74.09
2023-02-22T02:03:40.299Z,73.99
2023-02-22T02:06:12.037Z,73.94
2023-02-22T02:09:00.101Z,74.05
2023-02-22T02:11:26.991Z,73.88
2023-02-22T02:13:58.932Z,73.83
2023-02-22T02:16:40.936Z,73.49
2023-02-22T02:19:24.366Z,73.35
2023-02-22T02:22:33.006Z,73.40
2023-02-22T02:25:11.234Z,73.25
2023-02-22T02:27:56.736Z,73.25
2023-02-22T02:30:43.304Z,73.15
2023-02-22T02:33:23.416Z,73.05
2023-02-22T02:35:59.190Z,73.01
2023-02-22T02:38:45.423Z,72.99
2023-02-22T02:41:19.155Z,72.91
2023-02-22T02:44:31.289Z,72.86
2023-02-22T02:47:11.461Z,72.86
2023-02-22T02:49:43.536Z,72.89
2023-02-22T02:52:13.372Z,72.83
2023-02-22T02:54:41.454Z,72.88
2023-02-22T02:57:09.465Z,72.88
2023-02-22T02:59:37.913Z,73.04
2023-02-22T03:02:42.136Z,72.90
2023-02-22T03:05:20.967Z,72.68
2023-02-22T03:08:07.794Z,72.49
2023-02-22T03:11:01.826Z,72.63
2023-02-22T03:13:57.485Z,72.43
2023-02-22T03:16:39.632Z,72.44
2023-02-22T03:19:18.642Z,72.21
2023-02-22T03:22:26.257Z,72.53
2023-02-22T03:25:07.189Z,72.76
2023-02-22T03:27:43.517Z,73.05
2023-02-22T03:30:18.010Z,73.15
2023-02-22T03:32:50.740Z,73.12
2023-02-22T03:35:25.754Z,73.25
2023-02-22T03:37:56.787Z,73.26
2023-02-22T03:40:31.866Z,73.24
2023-02-22T03:43:14.645Z,73.45
2023-02-22T03:45:46.918Z,73.32
2023-02-22T03:48:20.926Z,73.40
2023-02-22T03:50:49.241Z,73.33
2023-02-22T03:53:18.628Z,73.57
2023-02-22T03:55:53.022Z,73.46
2023-02-22T03:58:22.800Z,73.86
2023-02-22T04:00:53.137Z,74.92
2023-02-22T04:03:21.440Z,74.96
2023-02-22T04:05:48.534Z,74.86
2023-02-22T04:08:16.258Z,74.72
2023-02-22T04:10:43.250Z,74.76
2023-02-22T04:13:10.720Z,74.53
2023-02-22T04:15:40.914Z,74.45
2023-02-22T04:18:09.974Z,74.10
2023-02-22T04:20:36.814Z,74.14
2023-02-22T04:23:10.903Z,74.20
2023-02-22T04:25:39.723Z,74.24
2023-02-22T04:28:15.172Z,74.04
2023-02-22T04:30:47.012Z,74.16
2023-02-22T04:33:16.302Z,74.92
2023-02-22T04:35:43.118Z,75.26
2023-02-22T04:38:09.906Z,75.23
2023-02-22T04:40:39.183Z,74.97
2023-02-22T04:43:07.043Z,75.54
2023-02-22T04:45:34.068Z,75.50
2023-02-22T04:48:03.927Z,75.45
2023-02-22T04:50:30.805Z,75.28
2023-02-22T04:52:57.588Z,75.13
2023-02-22T04:55:24.705Z,75.17
2023-02-22T04:57:51.546Z,75.26
2023-02-22T05:00:21.838Z,75.52
2023-02-22T05:02:50.586Z,75.58
2023-02-22T05:05:21.515Z,75.73
2023-02-22T05:07:49.315Z,75.59
2023-02-22T05:10:16.915Z,75.67
2023-02-22T05:12:43.798Z,76.32
2023-02-22T05:15:11.231Z,76.47
2023-02-22T05:17:37.972Z,76.36
2023-02-22T05:20:05.272Z,76.54
2023-02-22T05:22:32.034Z,76.38
2023-02-22T05:24:58.851Z,76.51
2023-02-22T05:27:25.531Z,76.31
2023-02-22T05:29:52.289Z,76.23
2023-02-22T05:32:19.106Z,76.58
2023-02-22T05:34:45.888Z,76.16
2023-02-22T05:37:12.631Z,76.18
2023-02-22T05:39:39.387Z,76.07
2023-02-22T05:42:06.123Z,75.90
2023-02-22T05:44:32.848Z,76.04
2023-02-22T05:46:59.623Z,76.00
2023-02-22T05:49:26.387Z,76.27
2023-02-22T05:51:55.794Z,76.50
2023-02-22T05:54:22.703Z,76.89
2023-02-22T05:56:49.475Z,77.43
2023-02-22T05:59:16.169Z,77.69
2023-02-22T06:01:42.875Z,77.87
2023-02-22T06:04:09.616Z,78.01
2023-02-22T06:06:36.387Z,78.41
2023-02-22T06:09:03.379Z,77.93
2023-02-22T06:11:30.167Z,78.02
2023-02-22T06:13:56.977Z,78.05
2023-02-22T06:16:23.890Z,78.21
2023-02-22T06:18:50.892Z,78.13
2023-02-22T06:21:18.039Z,78.44
2023-02-22T06:23:45.300Z,78.64
2023-02-22T06:26:12.126Z,78.22
2023-02-22T06:28:38.926Z,78.22
2023-02-22T06:31:05.916Z,78.23
2023-02-22T06:33:32.701Z,77.76
2023-02-22T06:35:59.537Z,77.54
2023-02-22T06:38:27.848Z,77.49
2023-02-22T06:40:55.397Z,77.11
2023-02-22T06:43:24.656Z,76.82
2023-02-22T06:45:52.665Z,76.55
2023-02-22T06:48:19.653Z,76.40
2023-02-22T06:50:46.489Z,77.05
2023-02-22T06:53:13.309Z,77.20
2023-02-22T06:55:40.043Z,77.31
2023-02-22T06:58:06.812Z,77.21
2023-02-22T07:00:33.641Z,77.00
2023-02-22T07:03:01.288Z,77.34
2023-02-22T07:05:28.550Z,78.02
2023-02-22T07:08:02.289Z,77.76
2023-02-22T07:10:31.584Z,78.81
2023-02-22T07:12:58.515Z,78.35
2023-02-22T07:15:28.020Z,78.54
2023-02-22T07:17:55.253Z,78.34
2023-02-22T07:20:24.558Z,78.18
2023-02-22T07:22:51.869Z,78.05
2023-02-22T07:25:19.404Z,77.26
2023-02-22T07:27:47.112Z,76.40
2023-02-22T07:30:18.727Z,76.78
2023-02-22T07:32:46.941Z,76.29
2023-02-22T07:35:19.162Z,76.41
2023-02-22T07:37:48.244Z,76.66
2023-02-22T07:40:17.378Z,76.16
2023-02-22T07:43:06.591Z,76.10
2023-02-22T07:45:35.694Z,75.52
2023-02-22T07:48:04.844Z,76.12
2023-02-22T07:50:33.675Z,76.48
2023-02-22T07:53:03.524Z,75.86
2023-02-22T07:55:32.160Z,75.64
2023-02-22T07:58:01.809Z,75.22
2023-02-22T08:00:31.789Z,74.80
2023-02-22T08:03:00.459Z,73.92
2023-02-22T08:05:29.022Z,73.87
2023-02-22T08:07:56.373Z,73.24
2023-02-22T08:10:25.450Z,72.74
2023-02-22T08:12:52.993Z,72.34
2023-02-22T08:15:26.415Z,71.94
2023-02-22T08:17:53.699Z,73.40
2023-02-22T08:20:21.099Z,74.98
2023-02-22T08:22:48.789Z,73.15
2023-02-22T08:25:17.314Z,71.27
2023-02-22T08:27:44.530Z,73.57
2023-02-22T08:30:23.478Z,70.42
2023-02-22T08:32:51.203Z,70.38
2023-02-22T08:35:22.548Z,69.61
2023-02-22T08:37:54.537Z,69.79
2023-02-22T08:40:23.712Z,68.34
2023-02-22T08:42:52.122Z,68.11
2023-02-22T08:45:19.887Z,68.28
2023-02-22T08:47:47.381Z,67.61
2023-02-22T08:50:36.405Z,67.87
2023-02-22T08:53:05.875Z,66.71
2023-02-22T08:55:39.663Z,66.54
2023-02-22T08:58:10.162Z,67.16
2023-02-22T09:00:39.231Z,66.18
2023-02-22T09:03:09.013Z,65.46
2023-02-22T09:05:36.330Z,65.75
2023-02-22T09:08:05.045Z,65.22
2023-02-22T09:10:34.069Z,64.53
2023-02-22T09:13:02.308Z,64.38
2023-02-22T09:15:30.003Z,65.42
2023-02-22T09:17:56.999Z,63.71
2023-02-22T09:20:24.819Z,63.77
2023-02-22T09:22:52.225Z,63.48
2023-02-22T09:25:22.601Z,64.00
2023-02-22T09:27:51.480Z,63.07
2023-02-22T09:30:32.133Z,62.92
2023-02-22T09:33:04.674Z,62.42
2023-02-22T09:35:31.612Z,62.32
2023-02-22T09:38:00.286Z,62.09
2023-02-22T09:40:30.961Z,62.35
2023-02-22T09:43:16.920Z,61.61
2023-02-22T09:46:03.889Z,61.18
2023-02-22T09:48:36.425Z,60.81
2023-02-22T09:51:11.660Z,60.54
2023-02-22T09:53:44.427Z,60.03
2023-02-22T09:56:14.673Z,59.31
2023-02-22T09:58:47.624Z,58.44
2023-02-22T10:01:20.250Z,58.40
2023-02-22T10:03:58.369Z,58.34
2023-02-22T10:06:25.342Z,57.96
2023-02-22T10:08:56.505Z,58.26
2023-02-22T10:11:29.130Z,58.20
2023-02-22T10:13:58.804Z,58.95
2023-02-22T10:16:30.855Z,59.53
2023-02-22T10:19:08.381Z,59.75
2023-02-22T10:22:05.046Z,61.54
2023-02-22T10:24:40.042Z,62.82
2023-02-22T10:27:13.474Z,63.51
2023-02-22T10:29:43.870Z,63.94
2023-02-22T10:32:35.516Z,64.01
2023-02-22T10:35:06.387Z,64.12
2023-02-22T10:37:34.713Z,63.87
2023-02-22T10:40:20.485Z,64.03
2023-02-22T10:42:47.566Z,63.83
2023-02-22T10:45:23.841Z,63.80
2023-02-22T10:47:55.071Z,63.55
2023-02-22T10:50:22.708Z,63.67
2023-02-22T10:52:49.456Z,63.56
2023-02-22T10:55:17.360Z,63.01
2023-02-22T10:57:51.294Z,63.19
2023-02-22T11:00:26.489Z,62.76
2023-02-22T11:02:57.990Z,63.17
2023-02-22T11:05:38.606Z,63.01
2023-02-22T11:08:30.771Z,62.72
2023-02-22T11:11:01.979Z,62.38
2023-02-22T11:13:34.508Z,62.30
2023-02-22T11:16:23.279Z,62.25
2023-02-22T11:18:50.151Z,62.45
2023-02-22T11:21:23.325Z,62.00
2023-02-22T11:24:00.564Z,61.72
2023-02-22T11:26:28.484Z,61.19
2023-02-22T11:28:56.425Z,61.32
2023-02-22T11:31:27.322Z,61.63
2023-02-22T11:33:58.631Z,61.46
2023-02-22T11:36:30.809Z,61.33
2023-02-22T11:39:00.767Z,61.69
2023-02-22T11:41:30.078Z,62.94
2023-02-22T11:44:21.861Z,62.31
2023-02-22T11:46:49.232Z,61.32
2023-02-22T11:49:17.553Z,61.33
2023-02-22T11:52:08.393Z,61.13
2023-02-22T11:54:47.894Z,60.58
2023-02-22T11:57:37.275Z,60.63
2023-02-22T12:00:24.906Z,60.25
2023-02-22T12:03:28.673Z,59.97
2023-02-22T12:06:01.627Z,59.33
2023-02-22T12:09:00.263Z,59.28
2023-02-22T12:11:37.531Z,59.27
2023-02-22T12:14:32.168Z,59.53
2023-02-22T12:17:19.600Z,59.56
2023-02-22T12:19:48.898Z,60.39
2023-02-22T12:22:23.077Z,61.57
2023-02-22T12:25:09.102Z,60.73
2023-02-22T12:28:23.711Z,60.96
2023-02-22T12:31:02.959Z,62.03
2023-02-22T12:33:42.582Z,62.15
2023-02-22T12:36:14.146Z,62.35
2023-02-22T12:38:46.939Z,62.50
2023-02-22T12:41:27.740Z,62.83
2023-02-22T12:44:02.451Z,62.69
2023-02-22T12:46:49.510Z,62.65
2023-02-22T12:49:36.319Z,63.31
2023-02-22T12:52:27.718Z,63.06
2023-02-22T12:55:16.661Z,63.13
2023-02-22T12:58:17.887Z,62.73
2023-02-22T13:01:22.766Z,62.63
2023-02-22T13:03:49.710Z,62.93
2023-02-22T13:06:45.061Z,63.11
2023-02-22T13:09:48.817Z,62.88
2023-02-22T13:12:23.160Z,62.82
2023-02-22T13:15:03.882Z,62.86
2023-02-22T13:18:01.311Z,62.68
2023-02-22T13:20:31.558Z,62.89
2023-02-22T13:23:10.369Z,62.95
2023-02-22T13:25:40.803Z,63.06
2023-02-22T13:28:13.545Z,63.73
2023-02-22T13:31:10.830Z,63.73
2023-02-22T13:34:04.132Z,63.91
2023-02-22T13:37:03.126Z,64.23
2023-02-22T13:39:57.462Z,64.80
2023-02-22T13:42:46.144Z,65.07
2023-02-22T13:45:40.345Z,65.05
2023-02-22T13:48:19.073Z,65.01
2023-02-22T13:51:04.681Z,64.46
2023-02-22T13:54:04.059Z,64.61
2023-02-22T13:56:31.066Z,64.53
2023-02-22T13:59:00.941Z,65.19
2023-02-22T14:01:41.193Z,64.81
2023-02-22T14:04:26.983Z,65.74
2023-02-22T14:07:23.781Z,65.54
2023-02-22T14:09:51.954Z,66.01
2023-02-22T14:12:29.135Z,65.77
2023-02-22T14:15:27.721Z,65.34
2023-02-22T14:18:03.309Z,66.00
2023-02-22T14:20:36.071Z,66.24
2023-02-22T14:23:28.989Z,65.76
2023-02-22T14:25:57.257Z,65.81
2023-02-22T14:28:33.110Z,65.10
2023-02-22T14:31:29.408Z,65.17
2023-02-22T14:34:15.994Z,64.98
2023-02-22T14:36:45.348Z,65.23
2023-02-22T14:39:15.080Z,65.18
2023-02-22T14:41:49.166Z,65.23
2023-02-22T14:44:23.900Z,65.35
2023-02-22T14:46:53.263Z,65.51
2023-02-22T14:49:24.608Z,65.88
2023-02-22T14:51:57.921Z,65.52
2023-02-22T14:54:47.911Z,65.88
2023-02-22T14:57:24.398Z,66.20
2023-02-22T15:00:06.119Z,66.77
2023-02-22T15:02:41.572Z,66.70
2023-02-22T15:05:14.490Z,65.97
2023-02-22T15:07:51.360Z,67.12
2023-02-22T15:10:23.991Z,66.32
2023-02-22T15:13:09.092Z,66.56
2023-02-22T15:15:49.466Z,66.43
2023-02-22T15:18:24.115Z,66.81
2023-02-22T15:20:56.440Z,67.69
2023-02-22T15:23:33.382Z,67.47
2023-02-22T15:26:00.416Z,67.88
2023-02-22T15:28:31.141Z,67.96
2023-02-22T15:31:24.308Z,67.74
2023-02-22T15:33:55.602Z,67.63
2023-02-22T15:36:27.795Z,68.03
2023-02-22T15:38:55.881Z,68.21
2023-02-22T15:41:32.700Z,67.87
2023-02-22T15:44:23.300Z,67.33
2023-02-22T15:46:50.878Z,67.54
2023-02-22T15:49:23.245Z,68.25
2023-02-22T15:52:06.634Z,68.26
2023-02-22T15:55:02.919Z,68.73
2023-02-22T15:57:30.560Z,69.47
2023-02-22T15:59:58.192Z,69.99
2023-02-22T16:02:33.610Z,69.92
2023-02-22T16:05:13.443Z,69.51
2023-02-22T16:07:45.394Z,69.66
2023-02-22T16:10:24.334Z,69.56
2023-02-22T16:13:04.605Z,69.45
2023-02-22T16:15:34.669Z,69.88
2023-02-22T16:18:24.634Z,70.30
2023-02-22T16:21:01.644Z,71.10
2023-02-22T16:23:30.315Z,70.78
2023-02-22T16:26:27.950Z,70.67
2023-02-22T16:29:06.380Z,71.66
2023-02-22T16:31:40.109Z,71.93
2023-02-22T16:34:08.454Z,71.44
2023-02-22T16:36:47.062Z,72.52
2023-02-22T16:39:32.412Z,72.46
2023-02-22T16:42:03.241Z,72.41
2023-02-22T16:44:30.053Z,72.06
2023-02-22T16:47:00.759Z,72.86
2023-02-22T16:49:27.576Z,73.35
2023-02-22T16:51:58.719Z,73.72
2023-02-22T16:54:34.288Z,73.99
2023-02-22T16:57:04.088Z,74.11
2023-02-22T16:59:38.686Z,73.94
2023-02-22T17:02:08.325Z,74.15
2023-02-22T17:04:35.184Z,74.57
2023-02-22T17:07:05.026Z,74.36
2023-02-22T17:09:32.933Z,74.07
2023-02-22T17:12:00.348Z,73.85
2023-02-22T17:14:31.819Z,73.94
2023-02-22T17:16:59.440Z,73.91
2023-02-22T17:19:26.739Z,74.20
2023-02-22T17:21:53.459Z,74.36
2023-02-22T17:24:23.024Z,74.21
2023-02-22T17:26:50.194Z,74.02
2023-02-22T17:29:17.937Z,74.31
2023-02-22T17:31:45.415Z,74.75
2023-02-22T17:34:12.192Z,74.49
2023-02-22T17:36:38.983Z,74.31
2023-02-22T17:39:06.308Z,74.45
2023-02-22T17:41:33.004Z,74.51
2023-02-22T17:43:59.712Z,74.50
2023-02-22T17:46:26.557Z,74.60
2023-02-22T17:48:56.295Z,74.21
2023-02-22T17:51:25.523Z,74.85
2023-02-22T17:53:52.240Z,74.86
2023-02-22T17:56:20.014Z,75.29
2023-02-22T17:58:49.830Z,74.09
2023-02-22T18:01:34.766Z,73.97
2023-02-22T18:04:02.556Z,74.38
2023-02-22T18:06:32.813Z,75.28
2023-02-22T18:09:01.321Z,74.84
2023-02-22T18:11:32.541Z,74.75
2023-02-22T18:13:59.803Z,75.17
2023-02-22T18:16:27.057Z,75.57
2023-02-22T18:18:55.325Z,75.26
2023-02-22T18:21:22.876Z,75.23
2023-02-22T18:23:49.680Z,74.75
2023-02-22T18:26:18.489Z,74.98
2023-02-22T18:28:45.553Z,75.26
2023-02-22T18:31:15.031Z,75.02
2023-02-22T18:33:43.325Z,75.00
2023-02-22T18:36:14.262Z,75.09
2023-02-22T18:38:43.181Z,74.94
2023-02-22T18:41:15.821Z,74.85
2023-02-22T18:43:43.012Z,74.87
2023-02-22T18:46:12.660Z,74.57
2023-02-22T18:48:39.966Z,74.64
2023-02-22T18:51:09.957Z,74.58
2023-02-22T18:53:38.356Z,74.66
2023-02-22T18:56:08.515Z,74.59
2023-02-22T18:58:35.922Z,74.29
2023-02-22T19:01:03.930Z,74.24
2023-02-22T19:03:32.229Z,74.09
2023-02-22T19:06:03.302Z,73.97
2023-02-22T19:08:32.521Z,73.94
2023-02-22T19:11:04.092Z,73.68
2023-02-22T19:13:31.775Z,73.79
2023-02-22T19:15:58.694Z,73.74
2023-02-22T19:18:25.584Z,73.71
2023-02-22T19:20:59.308Z,74.04
2023-02-22T19:23:28.344Z,73.89
2023-02-22T19:25:55.135Z,73.94
2023-02-22T19:28:28.042Z,74.01
2023-02-22T19:30:54.943Z,73.96
2023-02-22T19:33:25.977Z,73.99
2023-02-22T19:35:52.780Z,73.48
2023-02-22T19:38:20.334Z,73.50
2023-02-22T19:40:48.372Z,73.17
2023-02-22T19:43:15.161Z,73.13
2023-02-22T19:45:41.908Z,73.25
2023-02-22T19:48:08.740Z,73.19
2023-02-22T19:50:35.575Z,73.05
2023-02-22T19:53:02.330Z,73.72
2023-02-22T19:55:32.327Z,73.19
2023-02-22T19:57:59.484Z,73.00
2023-02-22T20:00:27.804Z,72.90
2023-02-22T20:03:05.748Z,72.97
2023-02-22T20:05:33.969Z,73.05
2023-02-22T20:08:00.752Z,73.26
2023-02-22T20:10:27.661Z,73.45
2023-02-22T20:12:54.404Z,73.56
2023-02-22T20:15:26.219Z,73.86
2023-02-22T20:17:53.072Z,74.05
2023-02-22T20:20:19.887Z,74.16
2023-02-22T20:22:46.556Z,74.38
2023-02-22T20:25:13.810Z,74.23
2023-02-22T20:27:40.704Z,74.17
2023-02-22T20:30:10.015Z,74.36
2023-02-22T20:32:38.213Z,74.63
2023-02-22T20:35:06.981Z,74.32
2023-02-22T20:37:34.262Z,74.25
2023-02-22T20:40:04.170Z,74.17
2023-02-22T20:42:31.885Z,73.93
2023-02-22T20:45:01.918Z,74.27
2023-02-22T20:47:29.011Z,74.60
2023-02-22T20:49:56.001Z,74.52
2023-02-22T20:52:22.866Z,74.40
2023-02-22T20:54:49.644Z,74.03
2023-02-22T20:57:16.390Z,74.29
2023-02-22T20:59:44.393Z,74.17
2023-02-22T21:02:11.210Z,74.11
2023-02-22T21:04:38.044Z,73.88
2023-02-22T21:07:05.329Z,73.79
2023-02-22T21:09:33.895Z,73.74
2023-02-22T21:12:00.749Z,73.65
2023-02-22T21:14:28.401Z,73.65
2023-02-22T21:16:55.157Z,73.53
2023-02-22T21:19:28.141Z,73.50
2023-02-22T21:22:01.444Z,73.62
2023-02-22T21:24:29.554Z,73.89
2023-02-22T21:26:58.943Z,73.67
2023-02-22T21:29:26.863Z,73.71
2023-02-22T21:31:53.949Z,73.75
2023-02-22T21:34:22.331Z,73.45
2023-02-22T21:36:50.545Z,73.24
2023-02-22T21:39:20.494Z,73.46
2023-02-22T21:41:50.545Z,73.35
2023-02-22T21:44:18.705Z,73.61
2023-02-22T21:46:48.799Z,74.09
2023-02-22T21:49:16.553Z,74.71
2023-02-22T21:51:44.802Z,74.89
2023-02-22T21:54:12.705Z,74.73
2023-02-22T21:56:42.119Z,74.43
2023-02-22T21:59:14.662Z,74.08
2023-02-22T22:01:47.950Z,74.46
2023-02-22T22:04:20.572Z,74.65
2023-02-22T22:06:49.985Z,75.44
2023-02-22T22:09:20.721Z,76.21
2023-02-22T22:11:52.115Z,75.78
2023-02-22T22:14:20.764Z,76.28
2023-02-22T22:16:58.736Z,75.96
2023-02-22T22:19:27.113Z,76.07
2023-02-22T22:21:54.181Z,76.72
2023-02-22T22:24:22.701Z,76.28
2023-02-22T22:26:54.559Z,76.21
2023-02-22T22:29:23.730Z,76.42
2023-02-22T22:31:51.434Z,76.19
2023-02-22T22:34:19.522Z,76.99
2023-02-22T22:36:46.728Z,77.88
2023-02-22T22:39:13.634Z,78.10
2023-02-22T22:41:44.955Z,77.73
2023-02-22T22:44:15.365Z,77.48
2023-02-22T22:46:43.626Z,77.65
2023-02-22T22:49:13.435Z,77.45
2023-02-22T22:51:47.419Z,76.90
2023-02-22T22:54:14.726Z,76.33
2023-02-22T22:56:41.581Z,75.96
2023-02-22T22:59:10.309Z,75.72
2023-02-22T23:01:40.707Z,75.12
2023-02-22T23:04:10.002Z,75.08
2023-02-22T23:06:40.135Z,75.00
2023-02-22T23:09:21.747Z,74.90
2023-02-22T23:12:09.178Z,74.95
2023-02-22T23:14:39.233Z,75.43
2023-02-22T23:17:15.966Z,76.06
2023-02-22T23:19:44.943Z,76.03
2023-02-22T23:22:14.519Z,76.12
2023-02-22T23:24:41.642Z,76.59
2023-02-22T23:27:10.810Z,76.85
2023-02-22T23:29:39.901Z,77.65
2023-02-22T23:32:07.623Z,77.56
2023-02-22T23:34:36.838Z,77.49
2023-02-22T23:37:03.811Z,77.67
2023-02-22T23:39:30.575Z,78.12
2023-02-22T23:41:59.290Z,77.87
2023-02-22T23:44:27.619Z,78.33
2023-02-22T23:46:55.812Z,78.38
2023-02-22T23:49:27.101Z,78.93
2023-02-22T23:51:54.880Z,78.65
2023-02-22T23:54:24.444Z,78.53
2023-02-22T23:56:56.984Z,78.46
2023-02-22T23:59:25.935Z,77.96
